createdAt,value
2018-01-15T00:01:02.276Z,75.35
2018-01-15T00:03:29.701Z,74.85
2018-01-15T00:05:57.147Z,74.85
2018-01-15T00:08:24.576Z,75.47
2018-01-15T00:10:52.001Z,75.52
2018-01-15T00:13:19.421Z,75.77
2018-01-15T00:15:46.848Z,75.39
2018-01-15T00:18:14.325Z,75.13
2018-01-15T00:20:41.712Z,75.30
2018-01-15T00:23:09.128Z,74.36
2018-01-15T00:25:36.576Z,74.94
2018-01-15T00:28:04.013Z,75.13
2018-01-15T00:30:31.437Z,75.12
2018-01-15T00:32:59.322Z,75.00
2018-01-15T00:35:26.742Z,75.26
2018-01-15T00:37:54.156Z,75.55
2018-01-15T00:40:21.594Z,75.78
2018-01-15T00:42:49.012Z,74.85
2018-01-15T00:45:16.429Z,75.01
2018-01-15T00:47:43.889Z,74.57
2018-01-15T00:50:11.311Z,75.36
2018-01-15T00:52:38.730Z,74.86
2018-01-15T00:55:06.310Z,74.54
2018-01-15T00:57:33.687Z,74.75
2018-01-15T01:00:01.104Z,74.84
2018-01-15T01:02:28.536Z,74.72
2018-01-15T01:04:55.949Z,74.79
2018-01-15T01:07:23.364Z,74.80
2018-01-15T01:09:50.794Z,74.45
2018-01-15T01:12:18.221Z,74.42
2018-01-15T01:14:45.986Z,74.89
2018-01-15T01:17:13.413Z,75.17
2018-01-15T01:19:40.834Z,75.18
2018-01-15T01:22:08.256Z,75.21
2018-01-15T01:24:35.684Z,74.82
2018-01-15T01:27:03.100Z,75.28
2018-01-15T01:29:30.524Z,75.41
2018-01-15T01:31:58.562Z,75.13
2018-01-15T01:34:26.632Z,75.70
2018-01-15T01:36:54.074Z,76.03
2018-01-15T01:39:21.491Z,76.21
2018-01-15T01:41:48.913Z,76.66
2018-01-15T01:44:16.337Z,76.79
2018-01-15T01:46:43.752Z,76.40
2018-01-15T01:49:11.178Z,76.45
2018-01-15T01:51:38.612Z,76.14
2018-01-15T01:54:06.033Z,75.27
2018-01-15T01:56:33.467Z,75.78
2018-01-15T01:59:01.357Z,75.26
2018-01-15T02:01:28.776Z,75.30
2018-01-15T02:03:56.193Z,74.79
2018-01-15T02:06:23.620Z,75.29
2018-01-15T02:08:51.036Z,76.09
2018-01-15T02:11:18.461Z,75.48
2018-01-15T02:13:46.293Z,75.41
2018-01-15T02:16:13.713Z,74.56
2018-01-15T02:18:41.137Z,74.91
2018-01-15T02:21:08.569Z,75.07
2018-01-15T02:23:35.989Z,74.81
2018-01-15T02:26:03.433Z,74.57
2018-01-15T02:28:30.857Z,74.56
2018-01-15T02:30:58.302Z,74.40
2018-01-15T02:33:25.708Z,74.45
2018-01-15T02:35:53.168Z,73.93
2018-01-15T02:38:20.581Z,73.83
2018-01-15T02:40:48.004Z,74.11
2018-01-15T02:43:15.448Z,74.02
2018-01-15T02:45:42.883Z,73.89
2018-01-15T02:48:10.297Z,74.64
2018-01-15T02:50:37.733Z,74.62
2018-01-15T02:53:05.157Z,74.66
2018-01-15T02:55:32.830Z,74.24
2018-01-15T02:58:00.266Z,74.25
2018-01-15T03:00:27.720Z,74.00
2018-01-15T03:02:55.146Z,74.32
2018-01-15T03:05:22.576Z,73.84
2018-01-15T03:07:50.000Z,73.89
2018-01-15T03:10:17.422Z,73.84
2018-01-15T03:12:44.848Z,74.27
2018-01-15T03:15:12.280Z,74.60
2018-01-15T03:17:39.710Z,74.43
2018-01-15T03:20:07.445Z,75.06
2018-01-15T03:22:34.885Z,74.41
2018-01-15T03:25:02.312Z,75.05
2018-01-15T03:27:29.740Z,74.52
2018-01-15T03:29:57.153Z,74.33
2018-01-15T03:32:24.596Z,75.02
2018-01-15T03:34:52.014Z,74.63
2018-01-15T03:37:19.421Z,75.10
2018-01-15T03:39:46.841Z,74.00
2018-01-15T03:42:14.264Z,73.62
2018-01-15T03:44:41.685Z,74.26
2018-01-15T03:47:09.082Z,74.46
2018-01-15T03:49:36.510Z,74.53
2018-01-15T03:52:03.928Z,73.94
2018-01-15T03:54:31.345Z,74.27
2018-01-15T03:56:59.076Z,74.44
2018-01-15T03:59:26.497Z,74.41
2018-01-15T04:01:53.926Z,74.10
2018-01-15T04:04:21.350Z,75.00
2018-01-15T04:06:48.761Z,74.09
2018-01-15T04:09:16.178Z,74.03
2018-01-15T04:11:43.609Z,74.73
2018-01-15T04:14:11.029Z,74.58
2018-01-15T04:16:38.449Z,74.63
2018-01-15T04:19:05.892Z,74.41
2018-01-15T04:21:33.313Z,74.46
2018-01-15T04:24:00.728Z,74.28
2018-01-15T04:26:28.161Z,74.69
2018-01-15T04:28:55.572Z,74.69
2018-01-15T04:31:22.988Z,74.39
2018-01-15T04:33:50.436Z,73.92
2018-01-15T04:36:17.840Z,75.02
2018-01-15T04:38:45.264Z,73.72
2018-01-15T04:41:13.058Z,74.28
2018-01-15T04:43:40.478Z,74.95
2018-01-15T04:46:07.892Z,74.24
2018-01-15T04:48:35.608Z,74.20
2018-01-15T04:51:03.020Z,74.19
2018-01-15T04:53:30.464Z,74.42
2018-01-15T04:55:57.874Z,74.27
2018-01-15T04:58:25.290Z,74.59
2018-01-15T05:00:52.696Z,74.55
2018-01-15T05:03:20.137Z,74.84
2018-01-15T05:05:47.541Z,75.38
2018-01-15T05:08:14.957Z,75.75
2018-01-15T05:10:42.376Z,76.46
2018-01-15T05:13:09.785Z,76.62
2018-01-15T05:15:37.208Z,76.90
2018-01-15T05:18:04.636Z,77.15
2018-01-15T05:20:32.052Z,77.32
2018-01-15T05:22:59.517Z,77.48
2018-01-15T05:25:26.951Z,77.63
2018-01-15T05:27:54.392Z,77.43
2018-01-15T05:30:21.827Z,77.00
2018-01-15T05:32:49.301Z,77.37
2018-01-15T05:35:16.741Z,77.15
2018-01-15T05:37:44.161Z,77.50
2018-01-15T05:40:11.662Z,78.35
2018-01-15T05:42:39.065Z,78.55
2018-01-15T05:45:06.485Z,79.10
2018-01-15T05:47:33.917Z,79.17
2018-01-15T05:50:01.342Z,79.15
2018-01-15T05:52:28.783Z,79.19
2018-01-15T05:54:56.513Z,78.86
2018-01-15T05:57:23.927Z,79.29
2018-01-15T05:59:51.361Z,79.68
2018-01-15T06:02:18.784Z,79.98
2018-01-15T06:04:46.204Z,79.76
2018-01-15T06:07:13.646Z,79.83
2018-01-15T06:09:41.048Z,79.56
2018-01-15T06:12:08.468Z,79.34
2018-01-15T06:14:35.884Z,79.49
2018-01-15T06:17:07.081Z,79.06
2018-01-15T06:19:34.493Z,79.24
2018-01-15T06:22:01.914Z,79.57
2018-01-15T06:24:29.342Z,79.77
2018-01-15T06:26:56.761Z,79.72
2018-01-15T06:29:24.180Z,79.94
2018-01-15T06:31:51.608Z,80.12
2018-01-15T06:34:19.024Z,80.17
2018-01-15T06:36:46.450Z,80.41
2018-01-15T06:39:13.872Z,80.16
2018-01-15T06:41:41.323Z,80.13
2018-01-15T06:44:08.780Z,80.18
2018-01-15T06:46:36.477Z,80.19
2018-01-15T06:49:03.910Z,79.93
2018-01-15T06:51:31.334Z,79.98
2018-01-15T06:53:58.854Z,80.35
2018-01-15T06:56:26.225Z,80.36
2018-01-15T06:58:53.646Z,80.10
2018-01-15T07:01:21.081Z,80.39
2018-01-15T07:03:48.496Z,80.30
2018-01-15T07:06:15.913Z,80.57
2018-01-15T07:08:43.381Z,81.04
2018-01-15T07:11:10.809Z,81.67
2018-01-15T07:13:38.234Z,81.46
2018-01-15T07:16:05.953Z,81.77
2018-01-15T07:18:33.364Z,81.51
2018-01-15T07:21:00.774Z,81.58
2018-01-15T07:23:28.205Z,81.43
2018-01-15T07:25:55.625Z,81.75
2018-01-15T07:28:23.045Z,81.49
2018-01-15T07:30:50.469Z,81.72
2018-01-15T07:33:17.889Z,81.97
2018-01-15T07:35:45.305Z,81.92
2018-01-15T07:38:12.741Z,81.92
2018-01-15T07:40:40.159Z,81.54
2018-01-15T07:43:07.573Z,81.81
2018-01-15T07:45:35.004Z,81.73
2018-01-15T07:48:02.425Z,81.22
2018-01-15T07:50:29.840Z,81.10
2018-01-15T07:52:57.270Z,81.32
2018-01-15T07:55:24.688Z,81.20
2018-01-15T07:57:52.161Z,81.32
2018-01-15T08:00:19.581Z,81.03
2018-01-15T08:02:46.997Z,81.21
2018-01-15T08:05:14.415Z,81.03
2018-01-15T08:07:41.845Z,81.18
2018-01-15T08:10:09.260Z,81.00
2018-01-15T08:12:36.668Z,81.08
2018-01-15T08:15:04.897Z,81.01
2018-01-15T08:17:32.301Z,80.78
2018-01-15T08:19:59.708Z,80.88
2018-01-15T08:22:27.844Z,80.32
2018-01-15T08:24:55.252Z,80.51
2018-01-15T08:27:22.665Z,80.50
2018-01-15T08:29:50.112Z,80.58
2018-01-15T08:32:17.526Z,80.50
2018-01-15T08:34:44.944Z,80.29
2018-01-15T08:37:12.372Z,79.96
2018-01-15T08:39:39.793Z,79.83
2018-01-15T08:42:07.188Z,80.11
2018-01-15T08:44:34.605Z,79.83
2018-01-15T08:47:02.021Z,79.80
2018-01-15T08:49:29.441Z,80.19
2018-01-15T08:51:56.849Z,80.08
2018-01-15T08:54:24.252Z,79.66
2018-01-15T08:56:51.661Z,79.89
2018-01-15T08:59:19.088Z,79.90
2018-01-15T09:01:46.488Z,79.66
2018-01-15T09:04:13.916Z,79.55
2018-01-15T09:06:41.321Z,79.32
2018-01-15T09:09:08.728Z,79.12
2018-01-15T09:11:36.133Z,79.37
2018-01-15T09:14:03.565Z,79.28
2018-01-15T09:16:30.970Z,79.13
2018-01-15T09:18:58.373Z,79.11
2018-01-15T09:21:25.797Z,78.86
2018-01-15T09:23:53.196Z,79.10
2018-01-15T09:26:20.608Z,78.70
2018-01-15T09:28:48.029Z,78.02
2018-01-15T09:31:15.437Z,78.53
2018-01-15T09:33:42.861Z,78.91
2018-01-15T09:36:10.278Z,78.00
2018-01-15T09:38:37.681Z,77.99
2018-01-15T09:41:05.134Z,77.89
2018-01-15T09:43:32.597Z,77.11
2018-01-15T09:45:59.992Z,77.46
2018-01-15T09:48:27.396Z,77.24
2018-01-15T09:50:55.133Z,76.86
2018-01-15T09:53:22.540Z,77.47
2018-01-15T09:55:49.944Z,77.05
2018-01-15T09:58:17.369Z,76.81
2018-01-15T10:00:44.768Z,77.18
2018-01-15T10:03:12.172Z,76.19
2018-01-15T10:05:39.875Z,76.12
2018-01-15T10:08:07.281Z,76.55
2018-01-15T10:10:34.685Z,76.29
2018-01-15T10:13:02.109Z,76.99
2018-01-15T10:15:29.516Z,76.71
2018-01-15T10:17:56.924Z,76.46
2018-01-15T10:20:24.340Z,76.59
2018-01-15T10:22:51.745Z,76.12
2018-01-15T10:25:19.151Z,75.85
2018-01-15T10:27:46.563Z,76.62
2018-01-15T10:30:13.972Z,76.52
2018-01-15T10:32:41.425Z,76.04
2018-01-15T10:35:08.800Z,75.50
2018-01-15T10:37:36.213Z,74.58
2018-01-15T10:40:03.623Z,74.53
2018-01-15T10:42:31.522Z,75.43
2018-01-15T10:44:58.917Z,74.62
2018-01-15T10:47:26.336Z,74.85
2018-01-15T10:49:53.756Z,74.94
2018-01-15T10:52:21.169Z,74.63
2018-01-15T10:54:48.572Z,74.50
2018-01-15T10:57:15.992Z,74.60
2018-01-15T10:59:43.584Z,74.67
2018-01-15T11:02:11.025Z,74.90
2018-01-15T11:04:38.426Z,75.18
2018-01-15T11:07:05.834Z,75.03
2018-01-15T11:09:33.247Z,75.68
2018-01-15T11:12:01.025Z,75.06
2018-01-15T11:14:28.448Z,74.98
2018-01-15T11:16:55.852Z,75.28
2018-01-15T11:19:23.273Z,75.16
2018-01-15T11:21:50.683Z,75.35
2018-01-15T11:24:18.089Z,75.52
2018-01-15T11:26:45.505Z,74.66
2018-01-15T11:29:13.752Z,75.59
2018-01-15T11:31:41.164Z,75.63
2018-01-15T11:34:08.576Z,75.60
2018-01-15T11:36:35.989Z,75.53
2018-01-15T11:39:03.408Z,75.51
2018-01-15T11:41:31.105Z,76.31
2018-01-15T11:43:58.514Z,76.31
2018-01-15T11:46:25.916Z,76.30
2018-01-15T11:48:53.332Z,76.19
2018-01-15T11:51:20.737Z,77.20
2018-01-15T11:53:48.140Z,76.92
2018-01-15T11:56:15.555Z,76.66
2018-01-15T11:58:42.957Z,77.18
2018-01-15T12:01:10.368Z,77.14
2018-01-15T12:03:37.781Z,77.45
2018-01-15T12:06:05.190Z,77.59
2018-01-15T12:08:32.589Z,76.94
2018-01-15T12:11:00.292Z,76.92
2018-01-15T12:13:27.703Z,77.07
2018-01-15T12:15:55.124Z,77.15
2018-01-15T12:18:22.521Z,77.17
2018-01-15T12:20:49.933Z,77.28
2018-01-15T12:23:17.338Z,76.99
2018-01-15T12:25:45.134Z,77.10
2018-01-15T12:28:12.545Z,77.59
2018-01-15T12:30:39.949Z,76.78
2018-01-15T12:33:07.364Z,77.63
2018-01-15T12:35:34.774Z,78.13
2018-01-15T12:38:02.182Z,78.15
2018-01-15T12:40:29.597Z,78.27
2018-01-15T12:42:57.001Z,78.39
2018-01-15T12:45:24.396Z,78.91
2018-01-15T12:47:51.822Z,78.42
2018-01-15T12:50:19.224Z,78.84
2018-01-15T12:52:46.961Z,79.02
2018-01-15T12:55:14.365Z,79.13
2018-01-15T12:57:41.785Z,79.02
2018-01-15T13:00:09.538Z,78.48
2018-01-15T13:02:36.941Z,78.65
2018-01-15T13:05:04.367Z,78.65
2018-01-15T13:07:43.466Z,78.49
2018-01-15T13:10:10.869Z,78.61
2018-01-15T13:12:38.283Z,79.28
2018-01-15T13:15:05.714Z,79.01
2018-01-15T13:17:33.116Z,79.29
2018-01-15T13:20:00.522Z,79.88
2018-01-15T13:22:27.945Z,80.15
2018-01-15T13:24:56.146Z,81.51
2018-01-15T13:27:23.553Z,80.87
2018-01-15T13:29:51.301Z,81.19
2018-01-15T13:32:18.709Z,81.12
2018-01-15T13:34:46.114Z,81.37
2018-01-15T13:37:13.538Z,82.43
2018-01-15T13:39:40.953Z,81.73
2018-01-15T13:42:08.378Z,82.76
2018-01-15T13:44:35.793Z,82.99
2018-01-15T13:47:03.193Z,82.50
2018-01-15T13:49:30.610Z,82.82
2018-01-15T13:51:58.026Z,83.00
2018-01-15T13:54:25.441Z,83.07
2018-01-15T13:56:52.845Z,83.92
2018-01-15T13:59:20.273Z,84.75
2018-01-15T14:01:47.684Z,85.53
2018-01-15T14:04:15.086Z,86.24
2018-01-15T14:06:42.514Z,86.82
2018-01-15T14:09:09.914Z,87.77
2018-01-15T14:11:37.322Z,87.92
2018-01-15T14:14:04.737Z,88.64
2018-01-15T14:16:32.137Z,89.00
2018-01-15T14:18:59.541Z,89.35
2018-01-15T14:21:26.962Z,89.20
2018-01-15T14:23:54.369Z,89.99
2018-01-15T14:26:21.770Z,89.99
2018-01-15T14:28:49.185Z,90.61
2018-01-15T14:31:16.588Z,90.22
2018-01-15T14:33:43.993Z,90.40
2018-01-15T14:36:11.822Z,89.97
2018-01-15T14:38:39.225Z,90.57
2018-01-15T14:41:06.633Z,89.98
2018-01-15T14:43:34.045Z,90.21
2018-01-15T14:46:01.449Z,90.15
2018-01-15T14:48:28.865Z,90.89
2018-01-15T14:50:56.589Z,91.16
2018-01-15T14:53:23.984Z,91.63
2018-01-15T14:55:51.398Z,91.49
2018-01-15T14:58:18.888Z,91.74
2018-01-15T15:00:46.304Z,91.95
2018-01-15T15:03:13.706Z,92.34
2018-01-15T15:05:41.241Z,92.49
2018-01-15T15:08:08.642Z,92.53
2018-01-15T15:10:36.049Z,92.77
2018-01-15T15:13:03.889Z,92.73
2018-01-15T15:15:31.285Z,92.75
2018-01-15T15:17:58.689Z,92.96
2018-01-15T15:20:26.105Z,93.19
2018-01-15T15:22:53.520Z,93.29
2018-01-15T15:25:20.924Z,93.52
2018-01-15T15:27:48.382Z,93.35
2018-01-15T15:30:15.829Z,93.62
2018-01-15T15:32:43.232Z,93.47
2018-01-15T15:35:10.993Z,93.81
2018-01-15T15:37:38.397Z,93.97
2018-01-15T15:40:05.809Z,94.11
2018-01-15T15:42:33.224Z,94.42
2018-01-15T15:45:00.638Z,94.42
2018-01-15T15:47:28.042Z,94.56
2018-01-15T15:49:55.736Z,94.42
2018-01-15T15:52:23.140Z,94.06
2018-01-15T15:54:50.545Z,94.14
2018-01-15T15:57:17.961Z,94.22
2018-01-15T15:59:45.367Z,93.83
2018-01-15T16:02:12.768Z,93.74
2018-01-15T16:04:40.189Z,93.96
2018-01-15T16:07:07.605Z,93.80
2018-01-15T16:09:35.010Z,93.79
2018-01-15T16:12:02.848Z,93.09
2018-01-15T16:14:30.263Z,93.40
2018-01-15T16:16:57.664Z,93.59
2018-01-15T16:19:25.540Z,93.50
2018-01-15T16:22:04.720Z,93.30
2018-01-15T16:24:32.136Z,93.30
2018-01-15T16:26:59.545Z,92.97
2018-01-15T16:29:26.962Z,92.90
2018-01-15T16:31:54.793Z,93.28
2018-01-15T16:34:22.205Z,93.30
2018-01-15T16:36:49.628Z,92.87
2018-01-15T16:39:17.041Z,93.10
2018-01-15T16:41:44.440Z,93.21
2018-01-15T16:44:11.845Z,93.37
2018-01-15T16:46:39.271Z,93.46
2018-01-15T16:49:06.681Z,93.60
2018-01-15T16:51:34.085Z,93.66
2018-01-15T16:54:01.511Z,93.92
2018-01-15T16:56:28.912Z,94.02
2018-01-15T16:58:56.317Z,94.18
2018-01-15T17:01:24.572Z,94.07
2018-01-15T17:03:51.948Z,93.97
2018-01-15T17:06:19.352Z,94.15
2018-01-15T17:08:46.768Z,94.29
2018-01-15T17:11:14.184Z,94.04
2018-01-15T17:13:41.581Z,94.27
2018-01-15T17:16:09.393Z,94.17
2018-01-15T17:18:36.792Z,93.99
2018-01-15T17:21:04.192Z,94.05
2018-01-15T17:23:32.008Z,93.93
2018-01-15T17:25:59.426Z,93.58
2018-01-15T17:28:26.830Z,93.92
2018-01-15T17:30:54.309Z,93.99
2018-01-15T17:33:21.709Z,93.72
2018-01-15T17:35:49.113Z,94.26
2018-01-15T17:38:16.537Z,93.68
2018-01-15T17:40:43.941Z,94.46
2018-01-15T17:43:11.368Z,94.30
2018-01-15T17:45:38.789Z,94.16
2018-01-15T17:48:06.206Z,94.19
2018-01-15T17:50:33.617Z,94.41
2018-01-15T17:53:01.029Z,94.38
2018-01-15T17:55:28.432Z,94.15
2018-01-15T17:57:55.842Z,94.72
2018-01-15T18:00:23.257Z,94.87
2018-01-15T18:02:50.660Z,94.77
2018-01-15T18:05:18.063Z,94.84
2018-01-15T18:07:45.929Z,94.96
2018-01-15T18:10:13.333Z,95.16
2018-01-15T18:12:41.231Z,95.14
2018-01-15T18:15:08.677Z,94.71
2018-01-15T18:17:36.080Z,95.11
2018-01-15T18:20:03.488Z,94.91
2018-01-15T18:22:30.916Z,94.71
2018-01-15T18:24:58.324Z,94.51
2018-01-15T18:27:25.768Z,93.64
2018-01-15T18:29:53.189Z,93.99
2018-01-15T18:32:20.628Z,93.13
2018-01-15T18:34:48.037Z,93.60
2018-01-15T18:37:15.726Z,93.84
2018-01-15T18:39:43.145Z,92.91
2018-01-15T18:42:10.554Z,93.00
2018-01-15T18:44:38.006Z,93.02
2018-01-15T18:47:05.424Z,92.56
2018-01-15T18:49:32.833Z,92.81
2018-01-15T18:52:00.552Z,91.23
2018-01-15T18:54:28.857Z,91.97
2018-01-15T18:56:56.937Z,90.90
2018-01-15T18:59:25.660Z,91.12
2018-01-15T19:01:53.067Z,91.68
2018-01-15T19:04:20.569Z,91.37
2018-01-15T19:06:48.760Z,90.80
2018-01-15T19:09:16.753Z,90.37
2018-01-15T19:11:44.157Z,90.85
2018-01-15T19:14:11.572Z,90.29
2018-01-15T19:16:39.027Z,90.89
2018-01-15T19:19:06.513Z,90.37
2018-01-15T19:21:39.445Z,88.09
2018-01-15T19:24:06.891Z,88.02
2018-01-15T19:26:34.765Z,88.89
2018-01-15T19:29:02.561Z,88.65
2018-01-15T19:31:30.289Z,88.16
2018-01-15T19:33:58.206Z,88.68
2018-01-15T19:36:27.577Z,88.35
2018-01-15T19:38:56.787Z,87.56
2018-01-15T19:41:41.033Z,87.70
2018-01-15T19:44:26.977Z,87.35
2018-01-15T19:46:59.889Z,87.26
2018-01-15T19:49:32.801Z,87.60
2018-01-15T19:52:05.718Z,87.96
2018-01-15T19:54:38.749Z,87.33
2018-01-15T19:57:11.702Z,87.67
2018-01-15T19:59:45.534Z,86.83
2018-01-15T20:05:24.360Z,85.26
2018-01-15T20:07:57.340Z,86.63
2018-01-15T20:10:38.201Z,85.41
2018-01-15T20:13:05.617Z,85.93
2018-01-15T20:15:33.024Z,85.69
2018-01-15T20:18:00.430Z,84.21
2018-01-15T20:20:27.829Z,85.45
2018-01-15T20:22:55.226Z,85.11
2018-01-15T20:25:22.617Z,84.96
2018-01-15T20:27:50.268Z,85.37
2018-01-15T20:30:17.669Z,86.14
2018-01-15T20:32:45.068Z,85.68
2018-01-15T20:35:12.484Z,87.03
2018-01-15T20:37:39.885Z,86.85
2018-01-15T20:40:07.284Z,87.92
2018-01-15T20:42:34.701Z,88.70
2018-01-15T20:45:02.109Z,88.58
2018-01-15T20:47:29.512Z,88.58
2018-01-15T20:49:56.934Z,89.22
2018-01-15T20:52:24.333Z,89.63
2018-01-15T20:54:51.744Z,90.13
2018-01-15T20:57:19.184Z,90.07
2018-01-15T20:59:46.593Z,90.72
2018-01-15T21:02:14.101Z,90.74
2018-01-15T21:04:41.468Z,91.14
2018-01-15T21:07:08.869Z,91.20
2018-01-15T21:09:37.045Z,91.13
2018-01-15T21:12:04.465Z,91.62
2018-01-15T21:14:31.868Z,91.97
2018-01-15T21:16:59.280Z,91.87
2018-01-15T21:19:27.075Z,91.85
2018-01-15T21:21:54.477Z,91.74
2018-01-15T21:24:21.878Z,92.12
2018-01-15T21:26:49.327Z,92.35
2018-01-15T21:29:16.704Z,92.40
2018-01-15T21:31:44.116Z,92.58
2018-01-15T21:34:11.533Z,92.60
2018-01-15T21:36:38.942Z,92.70
2018-01-15T21:39:06.355Z,92.54
2018-01-15T21:41:34.765Z,92.53
2018-01-15T21:44:02.190Z,92.69
2018-01-15T21:46:30.207Z,92.67
2018-01-15T21:48:57.997Z,92.29
2018-01-15T21:51:25.397Z,92.81
2018-01-15T21:53:52.800Z,92.71
2018-01-15T21:56:20.225Z,92.84
2018-01-15T21:58:47.634Z,92.51
2018-01-15T22:01:15.038Z,92.61
2018-01-15T22:03:42.452Z,93.07
2018-01-15T22:06:09.860Z,92.98
2018-01-15T22:08:38.058Z,93.01
2018-01-15T22:11:05.482Z,92.99
2018-01-15T22:13:32.888Z,92.98
2018-01-15T22:16:00.294Z,92.75
2018-01-15T22:18:27.705Z,92.94
2018-01-15T22:20:55.108Z,93.04
2018-01-15T22:23:22.513Z,92.90
2018-01-15T22:25:49.925Z,93.03
2018-01-15T22:28:17.328Z,93.07
2018-01-15T22:30:44.757Z,92.85
2018-01-15T22:33:12.165Z,93.05
2018-01-15T22:35:39.560Z,93.10
2018-01-15T22:38:06.976Z,93.21
2018-01-15T22:40:34.385Z,93.25
2018-01-15T22:43:01.805Z,93.29
2018-01-15T22:45:29.205Z,93.20
2018-01-15T22:47:57.377Z,93.00
2018-01-15T22:50:24.790Z,93.12
2018-01-15T22:52:52.193Z,93.21
2018-01-15T22:55:19.864Z,93.27
2018-01-15T22:57:47.290Z,93.47
2018-01-15T23:00:14.693Z,93.70
2018-01-15T23:02:42.114Z,93.82
2018-01-15T23:05:09.522Z,93.93
2018-01-15T23:07:36.924Z,93.92
2018-01-15T23:10:04.641Z,93.98
2018-01-15T23:12:32.049Z,94.10
2018-01-15T23:14:59.452Z,94.03
2018-01-15T23:17:26.873Z,94.19
2018-01-15T23:19:54.280Z,94.62
2018-01-15T23:22:21.680Z,94.83
2018-01-15T23:24:49.093Z,94.82
2018-01-15T23:27:16.509Z,94.94
2018-01-15T23:29:43.912Z,95.12
2018-01-15T23:32:11.641Z,95.20
2018-01-15T23:34:39.045Z,95.25
2018-01-15T23:37:06.453Z,95.21
2018-01-15T23:39:34.273Z,95.45
2018-01-15T23:42:01.677Z,95.16
2018-01-15T23:44:29.081Z,95.60
2018-01-15T23:46:56.508Z,94.95
2018-01-15T23:49:23.930Z,94.91
2018-01-15T23:51:51.332Z,94.17
2018-01-15T23:54:30.418Z,93.21
2018-01-15T23:56:57.825Z,91.62
2018-01-15T23:59:25.240Z,90.52
